W. A. Kernan — WDD4377 — position and weather

sailwx.info

Track history (hours):
 
Tides and Currents Weather Stations Pressure Air Temp Water Temp Dewpoint Dewpoint Depression Visibility Wind Speed Wind Dir Waves Ship Positions

W. A. Kernan

Owner: American Commercial Lines LLC, Jeffersonville, IN. More information available from US FCC via Universal Licensing System and Coast Guard Vessel Documentation Center.

Last reported at 2015-Apr-18 13:14 UTC. Time now 2015-Apr-26 08:15 UTC.
Position N 38°46' W 085°01'.

Length 45 m; draft 2.9 m.

MMSI: 367143920.

Date/timePositionNaut miles runAvg speedWind from/ knotsBaromVisibWave heightAir tempDewpointWater temp
2015-Apr-18 13:14N 38°46' W 085°01'0 0.4
2015-Apr-18 12:31N 38°46' W 085°01'11 3.3
2015-Apr-18 09:05N 38°54' W 084°51'3 5.9
2015-Apr-18 08:33N 38°57' W 084°51'7 7.4
2015-Apr-18 07:33N 39°04' W 084°52'8 7.9
2015-Apr-18 06:33N 39°08' W 084°43'3 2.7
2015-Apr-18 05:33N 39°06' W 084°41'0 0.1
2015-Apr-18 04:33N 39°06' W 084°41'0 0.1
2015-Apr-18 03:32N 39°06' W 084°41'0 0.0
2015-Apr-18 02:33N 39°06' W 084°41'0 0.0
2015-Apr-18 01:33N 39°06' W 084°41'0 0.0
2015-Apr-18 00:33N 39°06' W 084°41'3 3.0
2015-Apr-17 23:32N 39°05' W 084°38'0 0.0
2015-Apr-17 22:33N 39°05' W 084°38'2 1.9
2015-Apr-17 21:33N 39°06' W 084°40'4 3.9
2015-Apr-17 20:27N 39°09' W 084°44'6 4.2
2015-Apr-17 19:04N 39°06' W 084°50'3 3.9
2015-Apr-17 18:13N 39°03' W 084°54'7 3.9
2015-Apr-17 16:26N 38°57' W 084°51'13 2.1
2015-Apr-17 10:20N 38°46' W 085°00'  
2015-Apr-09 09:09N 39°02' W 084°53'5 6.7
2015-Apr-09 08:25N 39°06' W 084°49'5 5.9
2015-Apr-09 07:33N 39°08' W 084°43'2 2.5
2015-Apr-09 06:33N 39°06' W 084°41'0 0.1
2015-Apr-09 05:33N 39°06' W 084°41'0 0.1
2015-Apr-09 04:32N 39°06' W 084°41'0 0.0
2015-Apr-09 03:32N 39°06' W 084°41'0 0.0
2015-Apr-09 02:31N 39°06' W 084°41'0 0.3
2015-Apr-09 01:33N 39°06' W 084°41'0 0.3
2015-Apr-09 00:33N 39°06' W 084°41'0 0.0
2015-Apr-08 23:33N 39°06' W 084°41'0 0.0
2015-Apr-08 22:32N 39°06' W 084°41'0 0.0
2015-Apr-08 21:27N 39°06' W 084°41'0 0.3
2015-Apr-08 20:20N 39°06' W 084°41'3 3.1
2015-Apr-08 19:28N 39°05' W 084°38'0 0.1
2015-Apr-08 18:32N 39°05' W 084°38'2 2.3
2015-Apr-08 17:33N 39°06' W 084°41'5 4.7
2015-Apr-08 16:33N 39°08' W 084°46'5 4.7
2015-Apr-08 15:29N 39°05' W 084°51'8 3.8
2015-Apr-08 13:22N 38°57' W 084°50'  
Track history (hours):
 
Tides and Currents Weather Stations Pressure Air Temp Water Temp Dewpoint Dewpoint Depression Visibility Wind Speed Wind Dir Waves Ship Positions

W. A. Kernan

Owner: American Commercial Lines LLC, Jeffersonville, IN. More information available from US FCC via Universal Licensing System and Coast Guard Vessel Documentation Center.

Last reported at 2015-Apr-18 13:14 UTC. Time now 2015-Apr-26 08:16 UTC.
Position N 38°46' W 085°01'.

Length 45 m; draft 2.9 m.

MMSI: 367143920.

Date/timePositionNaut miles runAvg speedWind from/ knotsBaromVisibWave heightAir tempDewpointWater temp
2015-Apr-18 13:14N 38°46' W 085°01'0 0.4
2015-Apr-18 12:31N 38°46' W 085°01'11 3.3
2015-Apr-18 09:05N 38°54' W 084°51'3 5.9
2015-Apr-18 08:33N 38°57' W 084°51'7 7.4
2015-Apr-18 07:33N 39°04' W 084°52'8 7.9
2015-Apr-18 06:33N 39°08' W 084°43'3 2.7
2015-Apr-18 05:33N 39°06' W 084°41'0 0.1
2015-Apr-18 04:33N 39°06' W 084°41'0 0.1
2015-Apr-18 03:32N 39°06' W 084°41'0 0.0
2015-Apr-18 02:33N 39°06' W 084°41'0 0.0
2015-Apr-18 01:33N 39°06' W 084°41'0 0.0
2015-Apr-18 00:33N 39°06' W 084°41'3 3.0
2015-Apr-17 23:32N 39°05' W 084°38'0 0.0
2015-Apr-17 22:33N 39°05' W 084°38'2 1.9
2015-Apr-17 21:33N 39°06' W 084°40'4 3.9
2015-Apr-17 20:27N 39°09' W 084°44'6 4.2
2015-Apr-17 19:04N 39°06' W 084°50'3 3.9
2015-Apr-17 18:13N 39°03' W 084°54'7 3.9
2015-Apr-17 16:26N 38°57' W 084°51'13 2.1
2015-Apr-17 10:20N 38°46' W 085°00'  
2015-Apr-09 09:09N 39°02' W 084°53'5 6.7
2015-Apr-09 08:25N 39°06' W 084°49'5 5.9
2015-Apr-09 07:33N 39°08' W 084°43'2 2.5
2015-Apr-09 06:33N 39°06' W 084°41'0 0.1
2015-Apr-09 05:33N 39°06' W 084°41'0 0.1
2015-Apr-09 04:32N 39°06' W 084°41'0 0.0
2015-Apr-09 03:32N 39°06' W 084°41'0 0.0
2015-Apr-09 02:31N 39°06' W 084°41'0 0.3
2015-Apr-09 01:33N 39°06' W 084°41'0 0.3
2015-Apr-09 00:33N 39°06' W 084°41'0 0.0
2015-Apr-08 23:33N 39°06' W 084°41'0 0.0
2015-Apr-08 22:32N 39°06' W 084°41'0 0.0
2015-Apr-08 21:27N 39°06' W 084°41'0 0.3
2015-Apr-08 20:20N 39°06' W 084°41'3 3.1
2015-Apr-08 19:28N 39°05' W 084°38'0 0.1
2015-Apr-08 18:32N 39°05' W 084°38'2 2.3
2015-Apr-08 17:33N 39°06' W 084°41'5 4.7
2015-Apr-08 16:33N 39°08' W 084°46'5 4.7
2015-Apr-08 15:29N 39°05' W 084°51'8 3.8
2015-Apr-08 13:22N 38°57' W 084°50'  

Dump ship's entire track history